sensor_id;sensor_type;location;lat;lon;timestamp;P1;durP1;ratioP1;P2;durP2;ratioP2
75450;SDS011;64029;48.244;9.188;2022-11-14T00:00:32;14.57;;;9.43;;
75450;SDS011;64029;48.244;9.188;2022-11-14T00:02:59;13.83;;;9.40;;
75450;SDS011;64029;48.244;9.188;2022-11-14T00:05:29;15.27;;;10.10;;
75450;SDS011;64029;48.244;9.188;2022-11-14T00:07:55;16.40;;;10.57;;
75450;SDS011;64029;48.244;9.188;2022-11-14T00:10:23;16.90;;;10.37;;
75450;SDS011;64029;48.244;9.188;2022-11-14T00:12:50;14.27;;;9.57;;
75450;SDS011;64029;48.244;9.188;2022-11-14T00:15:17;14.67;;;9.63;;
75450;SDS011;64029;48.244;9.188;2022-11-14T00:17:44;14.07;;;9.87;;
75450;SDS011;64029;48.244;9.188;2022-11-14T00:20:11;15.63;;;10.50;;
75450;SDS011;64029;48.244;9.188;2022-11-14T00:22:40;15.27;;;10.50;;
75450;SDS011;64029;48.244;9.188;2022-11-14T00:25:07;13.97;;;9.83;;
75450;SDS011;64029;48.244;9.188;2022-11-14T00:27:35;15.30;;;10.03;;
75450;SDS011;64029;48.244;9.188;2022-11-14T00:30:02;15.40;;;10.13;;
75450;SDS011;64029;48.244;9.188;2022-11-14T00:32:29;16.63;;;10.47;;
75450;SDS011;64029;48.244;9.188;2022-11-14T00:34:56;12.03;;;9.07;;
75450;SDS011;64029;48.244;9.188;2022-11-14T00:37:23;12.43;;;8.90;;
75450;SDS011;64029;48.244;9.188;2022-11-14T00:39:52;13.33;;;9.80;;
75450;SDS011;64029;48.244;9.188;2022-11-14T00:42:19;15.37;;;10.67;;
75450;SDS011;64029;48.244;9.188;2022-11-14T00:44:46;16.40;;;10.40;;
75450;SDS011;64029;48.244;9.188;2022-11-14T00:47:13;14.63;;;9.70;;
75450;SDS011;64029;48.244;9.188;2022-11-14T00:49:40;13.40;;;9.30;;
75450;SDS011;64029;48.244;9.188;2022-11-14T00:52:06;13.87;;;8.97;;
75450;SDS011;64029;48.244;9.188;2022-11-14T00:54:33;15.67;;;9.87;;
75450;SDS011;64029;48.244;9.188;2022-11-14T00:57:01;14.33;;;9.20;;
75450;SDS011;64029;48.244;9.188;2022-11-14T00:59:28;14.20;;;9.97;;
75450;SDS011;64029;48.244;9.188;2022-11-14T01:01:55;14.10;;;9.50;;
75450;SDS011;64029;48.244;9.188;2022-11-14T01:04:22;15.63;;;9.83;;
75450;SDS011;64029;48.244;9.188;2022-11-14T01:06:49;13.60;;;9.70;;
75450;SDS011;64029;48.244;9.188;2022-11-14T01:09:16;14.77;;;10.30;;
75450;SDS011;64029;48.244;9.188;2022-11-14T01:11:43;13.90;;;9.00;;
75450;SDS011;64029;48.244;9.188;2022-11-14T01:14:11;14.70;;;9.47;;
75450;SDS011;64029;48.244;9.188;2022-11-14T01:16:38;14.40;;;10.00;;
75450;SDS011;64029;48.244;9.188;2022-11-14T01:19:05;14.30;;;9.60;;
75450;SDS011;64029;48.244;9.188;2022-11-14T01:21:32;14.43;;;9.23;;
75450;SDS011;64029;48.244;9.188;2022-11-14T01:23:59;11.77;;;8.90;;
75450;SDS011;64029;48.244;9.188;2022-11-14T01:26:25;13.80;;;8.80;;
75450;SDS011;64029;48.244;9.188;2022-11-14T01:28:52;12.07;;;8.47;;
75450;SDS011;64029;48.244;9.188;2022-11-14T01:31:21;12.90;;;8.53;;
75450;SDS011;64029;48.244;9.188;2022-11-14T01:33:50;10.80;;;8.10;;
75450;SDS011;64029;48.244;9.188;2022-11-14T01:36:18;14.13;;;9.70;;
75450;SDS011;64029;48.244;9.188;2022-11-14T01:38:46;12.83;;;8.73;;
75450;SDS011;64029;48.244;9.188;2022-11-14T01:41:18;13.70;;;8.33;;
75450;SDS011;64029;48.244;9.188;2022-11-14T01:43:45;12.90;;;9.27;;
75450;SDS011;64029;48.244;9.188;2022-11-14T01:46:13;14.23;;;8.97;;
75450;SDS011;64029;48.244;9.188;2022-11-14T01:48:44;12.03;;;8.33;;
75450;SDS011;64029;48.244;9.188;2022-11-14T01:51:16;12.43;;;8.50;;
75450;SDS011;64029;48.244;9.188;2022-11-14T01:53:47;14.10;;;9.07;;
75450;SDS011;64029;48.244;9.188;2022-11-14T01:56:18;12.10;;;8.60;;
75450;SDS011;64029;48.244;9.188;2022-11-14T01:58:51;12.40;;;8.10;;
75450;SDS011;64029;48.244;9.188;2022-11-14T02:01:22;11.40;;;7.77;;
75450;SDS011;64029;48.244;9.188;2022-11-14T02:03:52;10.90;;;8.07;;
75450;SDS011;64029;48.244;9.188;2022-11-14T02:06:21;11.47;;;7.83;;
75450;SDS011;64029;48.244;9.188;2022-11-14T02:08:51;13.47;;;8.97;;
75450;SDS011;64029;48.244;9.188;2022-11-14T02:11:20;12.40;;;8.70;;
75450;SDS011;64029;48.244;9.188;2022-11-14T02:13:47;11.57;;;8.17;;
75450;SDS011;64029;48.244;9.188;2022-11-14T02:16:14;13.70;;;8.57;;
75450;SDS011;64029;48.244;9.188;2022-11-14T02:18:41;12.43;;;8.00;;
75450;SDS011;64029;48.244;9.188;2022-11-14T02:21:09;14.60;;;9.50;;
75450;SDS011;64029;48.244;9.188;2022-11-14T02:23:36;13.53;;;9.43;;
75450;SDS011;64029;48.244;9.188;2022-11-14T02:26:03;15.90;;;9.50;;
75450;SDS011;64029;48.244;9.188;2022-11-14T02:28:30;14.87;;;9.17;;
75450;SDS011;64029;48.244;9.188;2022-11-14T02:30:57;13.53;;;8.80;;
75450;SDS011;64029;48.244;9.188;2022-11-14T02:33:24;14.80;;;9.10;;
75450;SDS011;64029;48.244;9.188;2022-11-14T02:35:50;14.67;;;9.50;;
75450;SDS011;64029;48.244;9.188;2022-11-14T02:38:19;17.30;;;11.50;;
75450;SDS011;64029;48.244;9.188;2022-11-14T02:40:46;16.00;;;10.07;;
75450;SDS011;64029;48.244;9.188;2022-11-14T02:43:12;15.40;;;9.77;;
75450;SDS011;64029;48.244;9.188;2022-11-14T02:45:39;15.07;;;10.20;;
75450;SDS011;64029;48.244;9.188;2022-11-14T02:48:06;18.33;;;11.53;;
75450;SDS011;64029;48.244;9.188;2022-11-14T02:50:33;18.70;;;11.07;;
75450;SDS011;64029;48.244;9.188;2022-11-14T02:53:00;17.40;;;11.07;;
75450;SDS011;64029;48.244;9.188;2022-11-14T02:55:28;14.77;;;9.50;;
75450;SDS011;64029;48.244;9.188;2022-11-14T02:57:55;14.70;;;9.90;;
75450;SDS011;64029;48.244;9.188;2022-11-14T03:00:22;16.50;;;10.30;;
75450;SDS011;64029;48.244;9.188;2022-11-14T03:02:49;14.13;;;9.80;;
75450;SDS011;64029;48.244;9.188;2022-11-14T03:05:18;17.17;;;10.60;;
75450;SDS011;64029;48.244;9.188;2022-11-14T03:07:45;17.90;;;10.70;;
75450;SDS011;64029;48.244;9.188;2022-11-14T03:10:12;19.10;;;11.10;;
75450;SDS011;64029;48.244;9.188;2022-11-14T03:12:40;14.33;;;10.07;;
75450;SDS011;64029;48.244;9.188;2022-11-14T03:15:07;17.80;;;10.57;;
75450;SDS011;64029;48.244;9.188;2022-11-14T03:17:35;15.20;;;10.10;;
75450;SDS011;64029;48.244;9.188;2022-11-14T03:20:02;15.90;;;10.30;;
75450;SDS011;64029;48.244;9.188;2022-11-14T03:22:29;17.40;;;10.80;;
75450;SDS011;64029;48.244;9.188;2022-11-14T03:24:56;21.77;;;12.50;;
75450;SDS011;64029;48.244;9.188;2022-11-14T03:27:23;16.83;;;11.80;;
75450;SDS011;64029;48.244;9.188;2022-11-14T03:29:51;19.20;;;11.40;;
75450;SDS011;64029;48.244;9.188;2022-11-14T03:32:18;24.73;;;14.70;;
75450;SDS011;64029;48.244;9.188;2022-11-14T03:34:45;17.53;;;11.10;;
75450;SDS011;64029;48.244;9.188;2022-11-14T03:37:12;19.83;;;11.20;;
75450;SDS011;64029;48.244;9.188;2022-11-14T03:39:39;19.60;;;12.57;;
75450;SDS011;64029;48.244;9.188;2022-11-14T03:42:06;19.97;;;12.77;;
75450;SDS011;64029;48.244;9.188;2022-11-14T03:44:33;20.77;;;13.03;;
75450;SDS011;64029;48.244;9.188;2022-11-14T03:47:01;23.77;;;13.43;;
75450;SDS011;64029;48.244;9.188;2022-11-14T03:49:28;20.53;;;13.43;;
75450;SDS011;64029;48.244;9.188;2022-11-14T03:51:55;22.70;;;14.20;;
75450;SDS011;64029;48.244;9.188;2022-11-14T03:54:22;25.50;;;14.97;;
75450;SDS011;64029;48.244;9.188;2022-11-14T03:56:49;22.77;;;12.77;;
75450;SDS011;64029;48.244;9.188;2022-11-14T03:59:16;23.80;;;14.07;;
75450;SDS011;64029;48.244;9.188;2022-11-14T04:01:42;25.40;;;14.73;;
75450;SDS011;64029;48.244;9.188;2022-11-14T04:04:11;23.37;;;14.37;;
75450;SDS011;64029;48.244;9.188;2022-11-14T04:06:38;21.97;;;12.53;;
75450;SDS011;64029;48.244;9.188;2022-11-14T04:09:05;24.17;;;14.30;;
75450;SDS011;64029;48.244;9.188;2022-11-14T04:11:32;24.83;;;14.47;;
75450;SDS011;64029;48.244;9.188;2022-11-14T04:13:59;21.23;;;12.63;;
75450;SDS011;64029;48.244;9.188;2022-11-14T04:16:26;25.93;;;13.33;;
75450;SDS011;64029;48.244;9.188;2022-11-14T04:18:52;25.70;;;14.40;;
75450;SDS011;64029;48.244;9.188;2022-11-14T04:21:20;20.57;;;13.73;;
75450;SDS011;64029;48.244;9.188;2022-11-14T04:23:47;24.43;;;14.37;;
75450;SDS011;64029;48.244;9.188;2022-11-14T04:26:14;20.13;;;13.50;;
75450;SDS011;64029;48.244;9.188;2022-11-14T04:28:41;26.23;;;14.73;;
75450;SDS011;64029;48.244;9.188;2022-11-14T04:31:08;26.40;;;14.73;;
75450;SDS011;64029;48.244;9.188;2022-11-14T04:33:34;25.90;;;14.90;;
75450;SDS011;64029;48.244;9.188;2022-11-14T04:36:01;29.30;;;15.97;;
75450;SDS011;64029;48.244;9.188;2022-11-14T04:38:30;25.03;;;16.80;;
75450;SDS011;64029;48.244;9.188;2022-11-14T04:40:56;26.70;;;14.03;;
75450;SDS011;64029;48.244;9.188;2022-11-14T04:43:23;27.00;;;15.40;;
75450;SDS011;64029;48.244;9.188;2022-11-14T04:45:50;26.20;;;15.60;;
75450;SDS011;64029;48.244;9.188;2022-11-14T04:48:17;28.10;;;16.23;;
75450;SDS011;64029;48.244;9.188;2022-11-14T04:50:44;27.27;;;15.10;;
75450;SDS011;64029;48.244;9.188;2022-11-14T04:53:11;26.17;;;15.80;;
75450;SDS011;64029;48.244;9.188;2022-11-14T04:55:39;28.30;;;16.67;;
75450;SDS011;64029;48.244;9.188;2022-11-14T04:58:06;26.87;;;14.57;;
75450;SDS011;64029;48.244;9.188;2022-11-14T05:00:33;30.20;;;17.10;;
75450;SDS011;64029;48.244;9.188;2022-11-14T05:03:00;28.60;;;16.43;;
75450;SDS011;64029;48.244;9.188;2022-11-14T05:05:27;24.93;;;14.90;;
75450;SDS011;64029;48.244;9.188;2022-11-14T05:07:54;29.03;;;16.33;;
75450;SDS011;64029;48.244;9.188;2022-11-14T05:10:21;32.10;;;17.23;;
75450;SDS011;64029;48.244;9.188;2022-11-14T05:12:51;32.87;;;17.87;;
75450;SDS011;64029;48.244;9.188;2022-11-14T05:15:18;41.20;;;17.80;;
75450;SDS011;64029;48.244;9.188;2022-11-14T05:17:45;36.80;;;18.00;;
75450;SDS011;64029;48.244;9.188;2022-11-14T05:20:12;37.77;;;20.87;;
75450;SDS011;64029;48.244;9.188;2022-11-14T05:22:39;32.50;;;16.27;;
75450;SDS011;64029;48.244;9.188;2022-11-14T05:25:06;40.83;;;19.67;;
75450;SDS011;64029;48.244;9.188;2022-11-14T05:27:33;37.83;;;19.23;;
75450;SDS011;64029;48.244;9.188;2022-11-14T05:30:02;46.53;;;21.53;;
75450;SDS011;64029;48.244;9.188;2022-11-14T05:32:29;34.17;;;17.23;;
75450;SDS011;64029;48.244;9.188;2022-11-14T05:34:56;38.67;;;20.17;;
75450;SDS011;64029;48.244;9.188;2022-11-14T05:37:23;37.77;;;19.30;;
75450;SDS011;64029;48.244;9.188;2022-11-14T05:39:49;34.77;;;17.40;;
75450;SDS011;64029;48.244;9.188;2022-11-14T05:42:16;34.10;;;19.50;;
75450;SDS011;64029;48.244;9.188;2022-11-14T05:44:43;28.07;;;16.17;;
75450;SDS011;64029;48.244;9.188;2022-11-14T05:47:11;25.40;;;14.47;;
75450;SDS011;64029;48.244;9.188;2022-11-14T05:49:38;32.63;;;17.20;;
75450;SDS011;64029;48.244;9.188;2022-11-14T05:52:05;31.70;;;17.50;;
75450;SDS011;64029;48.244;9.188;2022-11-14T05:54:32;34.93;;;18.20;;
75450;SDS011;64029;48.244;9.188;2022-11-14T05:56:58;30.90;;;16.47;;
75450;SDS011;64029;48.244;9.188;2022-11-14T05:59:25;33.00;;;16.90;;
75450;SDS011;64029;48.244;9.188;2022-11-14T06:01:52;33.20;;;17.70;;
75450;SDS011;64029;48.244;9.188;2022-11-14T06:04:20;32.40;;;17.63;;
75450;SDS011;64029;48.244;9.188;2022-11-14T06:06:47;38.37;;;19.07;;
75450;SDS011;64029;48.244;9.188;2022-11-14T06:09:14;32.10;;;18.17;;
75450;SDS011;64029;48.244;9.188;2022-11-14T06:11:41;34.37;;;18.67;;
75450;SDS011;64029;48.244;9.188;2022-11-14T06:14:09;35.67;;;18.87;;
75450;SDS011;64029;48.244;9.188;2022-11-14T06:16:36;38.30;;;20.30;;
75450;SDS011;64029;48.244;9.188;2022-11-14T06:19:03;31.90;;;17.27;;
75450;SDS011;64029;48.244;9.188;2022-11-14T06:21:31;36.23;;;19.57;;
75450;SDS011;64029;48.244;9.188;2022-11-14T06:23:58;35.77;;;20.77;;
75450;SDS011;64029;48.244;9.188;2022-11-14T06:26:25;30.57;;;19.00;;
75450;SDS011;64029;48.244;9.188;2022-11-14T06:28:54;31.87;;;18.30;;
75450;SDS011;64029;48.244;9.188;2022-11-14T06:31:22;32.27;;;17.83;;
75450;SDS011;64029;48.244;9.188;2022-11-14T06:33:49;36.93;;;19.40;;
75450;SDS011;64029;48.244;9.188;2022-11-14T06:36:16;31.80;;;18.53;;
75450;SDS011;64029;48.244;9.188;2022-11-14T06:38:45;31.93;;;17.60;;
75450;SDS011;64029;48.244;9.188;2022-11-14T06:41:12;30.30;;;18.53;;
75450;SDS011;64029;48.244;9.188;2022-11-14T06:43:41;29.87;;;18.70;;
75450;SDS011;64029;48.244;9.188;2022-11-14T06:46:09;33.03;;;19.80;;
75450;SDS011;64029;48.244;9.188;2022-11-14T06:48:38;29.57;;;16.53;;
75450;SDS011;64029;48.244;9.188;2022-11-14T06:51:06;28.23;;;16.73;;
75450;SDS011;64029;48.244;9.188;2022-11-14T06:53:34;33.33;;;18.00;;
75450;SDS011;64029;48.244;9.188;2022-11-14T06:56:03;32.07;;;17.17;;
75450;SDS011;64029;48.244;9.188;2022-11-14T06:58:32;34.17;;;17.57;;
75450;SDS011;64029;48.244;9.188;2022-11-14T07:01:03;30.67;;;16.10;;
75450;SDS011;64029;48.244;9.188;2022-11-14T07:03:31;33.17;;;18.70;;
75450;SDS011;64029;48.244;9.188;2022-11-14T07:05:58;26.53;;;15.60;;
75450;SDS011;64029;48.244;9.188;2022-11-14T07:08:25;22.03;;;14.50;;
75450;SDS011;64029;48.244;9.188;2022-11-14T07:10:53;30.67;;;17.43;;
75450;SDS011;64029;48.244;9.188;2022-11-14T07:13:21;26.97;;;16.00;;
75450;SDS011;64029;48.244;9.188;2022-11-14T07:15:48;29.60;;;16.27;;
75450;SDS011;64029;48.244;9.188;2022-11-14T07:18:16;29.10;;;17.20;;
75450;SDS011;64029;48.244;9.188;2022-11-14T07:20:43;26.33;;;15.43;;
75450;SDS011;64029;48.244;9.188;2022-11-14T07:23:09;29.30;;;16.60;;
75450;SDS011;64029;48.244;9.188;2022-11-14T07:25:36;34.53;;;18.40;;
75450;SDS011;64029;48.244;9.188;2022-11-14T07:28:03;31.70;;;18.47;;
75450;SDS011;64029;48.244;9.188;2022-11-14T07:30:31;33.00;;;18.80;;
75450;SDS011;64029;48.244;9.188;2022-11-14T07:32:59;32.60;;;18.67;;
75450;SDS011;64029;48.244;9.188;2022-11-14T07:35:25;26.60;;;16.90;;
75450;SDS011;64029;48.244;9.188;2022-11-14T07:37:52;31.20;;;18.47;;
75450;SDS011;64029;48.244;9.188;2022-11-14T07:40:26;33.17;;;17.37;;
75450;SDS011;64029;48.244;9.188;2022-11-14T07:42:55;28.47;;;15.40;;
75450;SDS011;64029;48.244;9.188;2022-11-14T07:45:23;27.07;;;14.60;;
75450;SDS011;64029;48.244;9.188;2022-11-14T07:47:54;27.40;;;15.70;;
75450;SDS011;64029;48.244;9.188;2022-11-14T07:50:21;29.17;;;16.90;;
75450;SDS011;64029;48.244;9.188;2022-11-14T07:52:49;30.50;;;15.80;;
75450;SDS011;64029;48.244;9.188;2022-11-14T07:55:16;39.40;;;16.20;;
75450;SDS011;64029;48.244;9.188;2022-11-14T07:57:43;31.10;;;17.37;;
75450;SDS011;64029;48.244;9.188;2022-11-14T08:00:11;24.40;;;14.50;;
75450;SDS011;64029;48.244;9.188;2022-11-14T08:02:38;25.37;;;14.17;;
75450;SDS011;64029;48.244;9.188;2022-11-14T08:05:07;23.30;;;13.87;;
75450;SDS011;64029;48.244;9.188;2022-11-14T08:07:34;29.07;;;14.30;;
75450;SDS011;64029;48.244;9.188;2022-11-14T08:10:01;27.80;;;15.53;;
75450;SDS011;64029;48.244;9.188;2022-11-14T08:12:28;27.13;;;15.70;;
75450;SDS011;64029;48.244;9.188;2022-11-14T08:14:54;27.97;;;14.00;;
75450;SDS011;64029;48.244;9.188;2022-11-14T08:17:21;22.70;;;14.67;;
75450;SDS011;64029;48.244;9.188;2022-11-14T08:19:48;23.13;;;14.20;;
75450;SDS011;64029;48.244;9.188;2022-11-14T08:22:16;28.17;;;13.40;;
75450;SDS011;64029;48.244;9.188;2022-11-14T08:24:43;21.40;;;13.13;;
75450;SDS011;64029;48.244;9.188;2022-11-14T08:27:10;20.87;;;12.10;;
75450;SDS011;64029;48.244;9.188;2022-11-14T08:29:37;23.80;;;13.73;;
75450;SDS011;64029;48.244;9.188;2022-11-14T08:32:04;25.87;;;14.70;;
75450;SDS011;64029;48.244;9.188;2022-11-14T08:34:31;21.43;;;13.87;;
75450;SDS011;64029;48.244;9.188;2022-11-14T08:36:57;26.90;;;14.03;;
75450;SDS011;64029;48.244;9.188;2022-11-14T08:39:26;24.17;;;13.83;;
75450;SDS011;64029;48.244;9.188;2022-11-14T08:41:53;22.97;;;12.77;;
75450;SDS011;64029;48.244;9.188;2022-11-14T08:44:19;18.13;;;11.17;;
75450;SDS011;64029;48.244;9.188;2022-11-14T08:46:46;24.80;;;12.17;;
75450;SDS011;64029;48.244;9.188;2022-11-14T08:49:14;21.70;;;12.87;;
75450;SDS011;64029;48.244;9.188;2022-11-14T08:51:41;14.97;;;9.80;;
75450;SDS011;64029;48.244;9.188;2022-11-14T08:54:08;19.20;;;11.93;;
75450;SDS011;64029;48.244;9.188;2022-11-14T08:56:36;20.97;;;12.20;;
75450;SDS011;64029;48.244;9.188;2022-11-14T08:59:03;18.17;;;10.37;;
75450;SDS011;64029;48.244;9.188;2022-11-14T09:01:30;19.73;;;10.90;;
75450;SDS011;64029;48.244;9.188;2022-11-14T09:03:58;19.07;;;11.23;;
75450;SDS011;64029;48.244;9.188;2022-11-14T09:06:25;25.37;;;12.30;;
75450;SDS011;64029;48.244;9.188;2022-11-14T09:08:52;20.10;;;11.60;;
75450;SDS011;64029;48.244;9.188;2022-11-14T09:11:19;20.77;;;12.33;;
75450;SDS011;64029;48.244;9.188;2022-11-14T09:13:47;15.77;;;10.57;;
75450;SDS011;64029;48.244;9.188;2022-11-14T09:16:14;15.97;;;10.10;;
75450;SDS011;64029;48.244;9.188;2022-11-14T09:18:41;17.07;;;9.80;;
75450;SDS011;64029;48.244;9.188;2022-11-14T09:21:09;18.13;;;10.90;;
75450;SDS011;64029;48.244;9.188;2022-11-14T09:23:36;17.30;;;9.80;;
75450;SDS011;64029;48.244;9.188;2022-11-14T09:26:03;13.43;;;8.57;;
75450;SDS011;64029;48.244;9.188;2022-11-14T09:28:31;11.67;;;7.97;;
75450;SDS011;64029;48.244;9.188;2022-11-14T09:31:00;12.43;;;7.23;;
75450;SDS011;64029;48.244;9.188;2022-11-14T09:33:27;14.27;;;7.20;;
75450;SDS011;64029;48.244;9.188;2022-11-14T09:35:57;10.40;;;5.80;;
75450;SDS011;64029;48.244;9.188;2022-11-14T09:38:24;9.73;;;5.80;;
75450;SDS011;64029;48.244;9.188;2022-11-14T09:40:56;15.07;;;6.67;;
75450;SDS011;64029;48.244;9.188;2022-11-14T09:43:33;7.90;;;5.23;;
75450;SDS011;64029;48.244;9.188;2022-11-14T09:46:15;13.17;;;5.80;;
75450;SDS011;64029;48.244;9.188;2022-11-14T09:48:45;8.70;;;4.97;;
75450;SDS011;64029;48.244;9.188;2022-11-14T09:51:13;11.80;;;7.17;;
75450;SDS011;64029;48.244;9.188;2022-11-14T09:53:44;9.87;;;6.20;;
75450;SDS011;64029;48.244;9.188;2022-11-14T09:56:17;10.20;;;6.33;;
75450;SDS011;64029;48.244;9.188;2022-11-14T09:58:46;8.47;;;5.47;;
75450;SDS011;64029;48.244;9.188;2022-11-14T10:01:16;8.10;;;5.40;;
75450;SDS011;64029;48.244;9.188;2022-11-14T10:03:48;6.80;;;4.83;;
75450;SDS011;64029;48.244;9.188;2022-11-14T10:06:25;7.70;;;4.90;;
75450;SDS011;64029;48.244;9.188;2022-11-14T10:09:03;7.70;;;5.13;;
75450;SDS011;64029;48.244;9.188;2022-11-14T10:11:43;7.87;;;5.80;;
75450;SDS011;64029;48.244;9.188;2022-11-14T10:14:24;9.10;;;5.97;;
75450;SDS011;64029;48.244;9.188;2022-11-14T10:17:16;7.57;;;4.83;;
75450;SDS011;64029;48.244;9.188;2022-11-14T10:19:53;9.90;;;6.43;;
75450;SDS011;64029;48.244;9.188;2022-11-14T10:22:30;8.97;;;6.20;;
75450;SDS011;64029;48.244;9.188;2022-11-14T10:25:16;8.23;;;5.40;;
75450;SDS011;64029;48.244;9.188;2022-11-14T10:27:50;11.53;;;6.90;;
75450;SDS011;64029;48.244;9.188;2022-11-14T10:30:23;13.47;;;8.10;;
75450;SDS011;64029;48.244;9.188;2022-11-14T10:33:03;13.20;;;7.43;;
75450;SDS011;64029;48.244;9.188;2022-11-14T10:35:39;13.30;;;8.30;;
75450;SDS011;64029;48.244;9.188;2022-11-14T10:38:10;10.33;;;6.63;;
75450;SDS011;64029;48.244;9.188;2022-11-14T10:40:41;16.63;;;9.23;;
75450;SDS011;64029;48.244;9.188;2022-11-14T10:43:14;14.57;;;9.27;;
75450;SDS011;64029;48.244;9.188;2022-11-14T10:45:46;17.77;;;9.63;;
75450;SDS011;64029;48.244;9.188;2022-11-14T10:48:18;15.43;;;8.53;;
75450;SDS011;64029;48.244;9.188;2022-11-14T10:50:55;11.57;;;7.60;;
75450;SDS011;64029;48.244;9.188;2022-11-14T10:53:24;13.73;;;8.60;;
75450;SDS011;64029;48.244;9.188;2022-11-14T10:56:01;14.43;;;10.40;;
75450;SDS011;64029;48.244;9.188;2022-11-14T10:58:27;12.50;;;7.90;;
75450;SDS011;64029;48.244;9.188;2022-11-14T11:00:54;13.50;;;8.00;;
75450;SDS011;64029;48.244;9.188;2022-11-14T11:03:32;12.30;;;7.83;;
75450;SDS011;64029;48.244;9.188;2022-11-14T11:06:08;12.13;;;7.90;;
75450;SDS011;64029;48.244;9.188;2022-11-14T11:08:50;13.87;;;8.80;;
75450;SDS011;64029;48.244;9.188;2022-11-14T11:11:36;13.43;;;8.10;;
75450;SDS011;64029;48.244;9.188;2022-11-14T11:14:08;12.40;;;7.33;;
75450;SDS011;64029;48.244;9.188;2022-11-14T11:16:42;12.40;;;8.40;;
75450;SDS011;64029;48.244;9.188;2022-11-14T11:19:20;12.53;;;7.70;;
75450;SDS011;64029;48.244;9.188;2022-11-14T11:21:49;17.17;;;9.10;;
75450;SDS011;64029;48.244;9.188;2022-11-14T11:24:29;13.80;;;9.00;;
75450;SDS011;64029;48.244;9.188;2022-11-14T11:27:17;14.07;;;8.00;;
75450;SDS011;64029;48.244;9.188;2022-11-14T11:29:46;11.23;;;7.57;;
75450;SDS011;64029;48.244;9.188;2022-11-14T11:32:30;10.50;;;7.40;;
75450;SDS011;64029;48.244;9.188;2022-11-14T11:34:59;10.97;;;6.70;;
75450;SDS011;64029;48.244;9.188;2022-11-14T11:37:29;9.60;;;6.17;;
75450;SDS011;64029;48.244;9.188;2022-11-14T11:40:00;13.83;;;8.63;;
75450;SDS011;64029;48.244;9.188;2022-11-14T11:42:30;12.63;;;7.63;;
75450;SDS011;64029;48.244;9.188;2022-11-14T11:45:03;9.90;;;6.87;;
75450;SDS011;64029;48.244;9.188;2022-11-14T11:47:37;10.90;;;7.40;;
75450;SDS011;64029;48.244;9.188;2022-11-14T11:50:11;7.67;;;6.00;;
75450;SDS011;64029;48.244;9.188;2022-11-14T11:52:42;10.50;;;5.90;;
75450;SDS011;64029;48.244;9.188;2022-11-14T11:55:15;10.00;;;6.97;;
75450;SDS011;64029;48.244;9.188;2022-11-14T11:57:46;12.23;;;7.63;;
75450;SDS011;64029;48.244;9.188;2022-11-14T12:00:16;9.63;;;6.73;;
75450;SDS011;64029;48.244;9.188;2022-11-14T12:02:47;9.27;;;6.53;;
75450;SDS011;64029;48.244;9.188;2022-11-14T12:05:16;6.73;;;5.87;;
75450;SDS011;64029;48.244;9.188;2022-11-14T12:07:49;11.07;;;6.80;;
75450;SDS011;64029;48.244;9.188;2022-11-14T12:10:24;9.43;;;6.90;;
75450;SDS011;64029;48.244;9.188;2022-11-14T12:13:06;8.03;;;5.67;;
75450;SDS011;64029;48.244;9.188;2022-11-14T12:15:58;5.57;;;4.97;;
75450;SDS011;64029;48.244;9.188;2022-11-14T12:21:35;9.20;;;5.47;;
75450;SDS011;64029;48.244;9.188;2022-11-14T12:24:24;6.70;;;5.30;;
75450;SDS011;64029;48.244;9.188;2022-11-14T12:27:12;8.30;;;5.27;;
75450;SDS011;64029;48.244;9.188;2022-11-14T12:29:55;7.83;;;4.90;;
75450;SDS011;64029;48.244;9.188;2022-11-14T12:32:38;6.53;;;4.80;;
75450;SDS011;64029;48.244;9.188;2022-11-14T12:35:09;8.93;;;5.67;;
75450;SDS011;64029;48.244;9.188;2022-11-14T12:37:44;10.87;;;6.83;;
75450;SDS011;64029;48.244;9.188;2022-11-14T12:40:24;9.57;;;6.90;;
75450;SDS011;64029;48.244;9.188;2022-11-14T12:42:54;7.90;;;5.47;;
75450;SDS011;64029;48.244;9.188;2022-11-14T12:48:33;7.50;;;5.40;;
75450;SDS011;64029;48.244;9.188;2022-11-14T12:51:02;6.73;;;5.53;;
75450;SDS011;64029;48.244;9.188;2022-11-14T12:53:44;7.50;;;5.57;;
75450;SDS011;64029;48.244;9.188;2022-11-14T12:59:27;6.50;;;5.00;;
75450;SDS011;64029;48.244;9.188;2022-11-14T13:05:27;6.00;;;4.70;;
75450;SDS011;64029;48.244;9.188;2022-11-14T13:08:15;6.93;;;4.80;;
75450;SDS011;64029;48.244;9.188;2022-11-14T13:10:58;6.67;;;4.83;;
75450;SDS011;64029;48.244;9.188;2022-11-14T13:13:25;6.03;;;4.33;;
75450;SDS011;64029;48.244;9.188;2022-11-14T13:16:20;7.20;;;4.97;;
75450;SDS011;64029;48.244;9.188;2022-11-14T13:19:11;6.10;;;4.73;;
75450;SDS011;64029;48.244;9.188;2022-11-14T13:25:16;4.63;;;4.20;;
75450;SDS011;64029;48.244;9.188;2022-11-14T13:27:45;6.27;;;4.20;;
75450;SDS011;64029;48.244;9.188;2022-11-14T13:30:12;5.80;;;4.30;;
75450;SDS011;64029;48.244;9.188;2022-11-14T13:35:31;7.80;;;5.77;;
75450;SDS011;64029;48.244;9.188;2022-11-14T13:38:19;7.60;;;4.60;;
75450;SDS011;64029;48.244;9.188;2022-11-14T13:41:13;6.03;;;4.60;;
75450;SDS011;64029;48.244;9.188;2022-11-14T13:44:12;4.87;;;4.37;;
75450;SDS011;64029;48.244;9.188;2022-11-14T13:46:55;6.93;;;4.40;;
75450;SDS011;64029;48.244;9.188;2022-11-14T13:49:40;6.27;;;4.10;;
75450;SDS011;64029;48.244;9.188;2022-11-14T13:52:19;4.73;;;3.77;;
75450;SDS011;64029;48.244;9.188;2022-11-14T13:54:47;4.70;;;3.90;;
75450;SDS011;64029;48.244;9.188;2022-11-14T13:57:17;5.23;;;3.73;;
75450;SDS011;64029;48.244;9.188;2022-11-14T14:00:00;4.20;;;3.53;;
75450;SDS011;64029;48.244;9.188;2022-11-14T14:02:42;3.90;;;3.37;;
75450;SDS011;64029;48.244;9.188;2022-11-14T14:05:29;3.87;;;3.33;;
75450;SDS011;64029;48.244;9.188;2022-11-14T14:08:09;6.17;;;4.27;;
75450;SDS011;64029;48.244;9.188;2022-11-14T14:10:48;5.13;;;4.30;;
75450;SDS011;64029;48.244;9.188;2022-11-14T14:13:25;4.20;;;3.50;;
75450;SDS011;64029;48.244;9.188;2022-11-14T14:16:03;6.53;;;4.60;;
75450;SDS011;64029;48.244;9.188;2022-11-14T14:18:42;5.30;;;3.90;;
75450;SDS011;64029;48.244;9.188;2022-11-14T14:21:17;5.43;;;4.53;;
75450;SDS011;64029;48.244;9.188;2022-11-14T14:23:55;6.93;;;4.70;;
75450;SDS011;64029;48.244;9.188;2022-11-14T14:26:31;6.30;;;5.10;;
75450;SDS011;64029;48.244;9.188;2022-11-14T14:29:10;7.80;;;5.40;;
75450;SDS011;64029;48.244;9.188;2022-11-14T14:31:47;8.90;;;6.30;;
75450;SDS011;64029;48.244;9.188;2022-11-14T14:34:19;7.93;;;5.77;;
75450;SDS011;64029;48.244;9.188;2022-11-14T14:36:48;7.47;;;5.50;;
75450;SDS011;64029;48.244;9.188;2022-11-14T14:39:18;8.10;;;5.23;;
75450;SDS011;64029;48.244;9.188;2022-11-14T14:41:47;10.33;;;4.83;;
75450;SDS011;64029;48.244;9.188;2022-11-14T14:44:17;8.47;;;4.43;;
75450;SDS011;64029;48.244;9.188;2022-11-14T14:46:49;5.73;;;4.87;;
75450;SDS011;64029;48.244;9.188;2022-11-14T14:49:17;7.20;;;4.87;;
75450;SDS011;64029;48.244;9.188;2022-11-14T14:51:47;6.50;;;4.30;;
75450;SDS011;64029;48.244;9.188;2022-11-14T14:54:19;6.13;;;4.73;;
75450;SDS011;64029;48.244;9.188;2022-11-14T14:56:51;6.83;;;5.40;;
75450;SDS011;64029;48.244;9.188;2022-11-14T14:59:21;8.77;;;5.07;;
75450;SDS011;64029;48.244;9.188;2022-11-14T15:01:51;6.70;;;4.83;;
75450;SDS011;64029;48.244;9.188;2022-11-14T15:04:20;6.00;;;4.70;;
75450;SDS011;64029;48.244;9.188;2022-11-14T15:06:48;6.30;;;3.83;;